首页
METAR-TAF:

METAR-TAF

机场 :

哥伦布, 密西西比州, 美国

纬度: 33-39N, 经度: 088-27W, 海拔: 67米

当前天气观测

该预报发布于33分钟前的21:01 UTC
风速6节,风向东南
温度 15°C
湿度 94%
气压 1015 hPa
能見度: 16.1公里
散云层高于700英尺
散云层高于5000英尺

METAR: KCBM 262101Z AUTO 13006KT 10SM SCT007 SCT050 15/14 A2997 RMK AO2 SLP152 $

时间: 15:34 (21:34 UTC)

预报

该预报发布于44分钟前的20:50 UTC
预报有效从26日的 20点(UTC)到 27日的 23点(UTC)
风速6节,风向
能见度10公里或以上
散云层高于700英尺
多云层高于2500英尺
成为
从 27日的 02点(UTC)到 27日的 03点(UTC)
风速7节,风向
能见度10公里或以上
多云层高于1000英尺
成为
从 27日的 08点(UTC)到 27日的 09点(UTC)
风速10节,风向,有时为15节阵风
能見度: 8000
多云层高于700英尺
小阵雨
成为
从 27日的 14点(UTC)到 27日的 15点(UTC)
风速9节,风向
能见度10公里或以上
散云层高于1200英尺
多云层高于2500英尺

TAF: KCBM 262050Z 2620/2723 10006KT 9999 SCT007 BKN025 QNH2989INS BECMG 2702/2703 18007KT 9999 BKN010 QNH2995INS BECMG 2708/2709 18010G15KT 8000 -SHRA BKN007 QNH2991INS BECMG 2714/2715 18009KT 9999 NSW SCT012 BKN025 QNH2990INS TX20/2717Z TN15/2620Z

超过4000个机场的气象观测和天气预报(METAR&TAF报告)。

可查询的气象台以黄色和红色小点在地图上表示。

将鼠标移到小点上方,可查看气象台名称。

然后点击查看天气观测和预报。

如需切换地图:点击带黑十字的绿色按钮放大地图;点击带横线的绿色按钮缩小地图;或者点击绿色箭头查看邻近地区的地图。


METAR-TAF: